createdAt,value
2019-05-19T00:02:34.559Z,22
2019-05-19T00:07:36.993Z,23
2019-05-19T00:12:39.480Z,24
2019-05-19T00:17:41.931Z,23
2019-05-19T00:22:44.377Z,24
2019-05-19T00:27:46.866Z,27
2019-05-19T00:32:49.301Z,27
2019-05-19T00:37:51.779Z,26
2019-05-19T00:42:54.212Z,27
2019-05-19T00:47:56.669Z,24
2019-05-19T00:52:59.134Z,28
2019-05-19T00:58:01.587Z,25
2019-05-19T01:03:04.075Z,27
2019-05-19T01:08:06.537Z,28
2019-05-19T01:13:08.964Z,27
2019-05-19T01:18:11.462Z,27
2019-05-19T01:23:13.898Z,27
2019-05-19T01:28:16.319Z,28
2019-05-19T01:33:18.799Z,27
2019-05-19T01:38:21.253Z,29
2019-05-19T01:43:23.717Z,27
2019-05-19T01:48:27.960Z,29
2019-05-19T01:53:28.622Z,30
2019-05-19T01:58:31.147Z,33
2019-05-19T02:03:33.544Z,30
2019-05-19T02:08:35.984Z,32
2019-05-19T02:13:38.507Z,33
2019-05-19T02:18:40.971Z,33
2019-05-19T02:23:43.361Z,35
2019-05-19T02:28:45.878Z,31
2019-05-19T02:33:48.289Z,34
2019-05-19T02:38:50.774Z,33
2019-05-19T02:43:53.267Z,36
2019-05-19T02:48:55.641Z,36
2019-05-19T02:53:58.097Z,40
2019-05-19T02:59:00.601Z,41
2019-05-19T03:04:03.030Z,39
2019-05-19T03:09:05.478Z,40
2019-05-19T03:14:07.994Z,37
2019-05-19T03:19:10.411Z,36
2019-05-19T03:24:12.863Z,34
2019-05-19T03:29:15.342Z,34
2019-05-19T03:34:17.766Z,35
2019-05-19T03:39:20.215Z,36
2019-05-19T03:44:22.850Z,34
2019-05-19T03:49:25.186Z,35
2019-05-19T03:54:27.596Z,33
2019-05-19T03:59:30.044Z,36
2019-05-19T04:04:32.521Z,35
2019-05-19T04:09:35.000Z,35
2019-05-19T04:14:37.471Z,34
2019-05-19T04:19:39.894Z,31
2019-05-19T04:24:42.344Z,33
2019-05-19T04:29:44.826Z,30
2019-05-19T04:34:47.278Z,28
2019-05-19T04:39:49.752Z,27
2019-05-19T04:44:52.187Z,25
2019-05-19T04:49:54.648Z,26
2019-05-19T04:54:57.116Z,24
2019-05-19T04:59:59.571Z,23
2019-05-19T05:05:02.053Z,23
2019-05-19T05:10:04.516Z,21
2019-05-19T05:15:06.987Z,22
2019-05-19T05:20:09.461Z,19
2019-05-19T05:25:11.858Z,22
2019-05-19T05:30:14.368Z,20
2019-05-19T05:35:16.767Z,18
2019-05-19T05:40:19.204Z,19
2019-05-19T05:45:21.764Z,18
2019-05-19T05:50:24.223Z,17
2019-05-19T05:55:26.593Z,17
2019-05-19T06:00:29.056Z,17
2019-05-19T06:05:31.505Z,17
2019-05-19T06:10:33.959Z,18
2019-05-19T06:15:36.462Z,15
2019-05-19T06:20:38.971Z,16
2019-05-19T06:25:41.330Z,16
2019-05-19T06:30:43.904Z,15
2019-05-19T06:35:46.255Z,15
2019-05-19T06:40:48.772Z,13
2019-05-19T06:45:51.190Z,15
2019-05-19T06:50:53.728Z,13
2019-05-19T06:55:56.097Z,14
2019-05-19T07:00:59.169Z,16
2019-05-19T07:06:01.033Z,14
2019-05-19T07:11:03.470Z,15
2019-05-19T07:16:05.952Z,14
2019-05-19T07:21:08.460Z,15
2019-05-19T07:26:10.824Z,15
2019-05-19T07:31:13.295Z,13
2019-05-19T07:36:15.789Z,14
2019-05-19T07:41:18.205Z,14
2019-05-19T07:46:20.738Z,13
2019-05-19T07:51:23.204Z,13
2019-05-19T07:56:25.625Z,14
2019-05-19T08:01:28.051Z,13
2019-05-19T08:06:30.529Z,12
2019-05-19T08:11:33.022Z,12
2019-05-19T08:16:35.428Z,12
2019-05-19T08:21:38.171Z,12
2019-05-19T08:26:40.343Z,13
2019-05-19T08:31:42.827Z,13
2019-05-19T08:36:45.323Z,12
2019-05-19T08:41:47.766Z,13
2019-05-19T08:46:50.197Z,11
2019-05-19T08:51:52.818Z,10
2019-05-19T08:56:55.166Z,12
2019-05-19T09:01:57.612Z,11
2019-05-19T09:07:00.060Z,11
2019-05-19T09:12:02.499Z,11
2019-05-19T09:17:04.994Z,11
2019-05-19T09:22:07.632Z,9
2019-05-19T09:27:09.883Z,9
2019-05-19T09:32:12.317Z,9
2019-05-19T09:37:14.807Z,10
2019-05-19T09:42:17.267Z,9
2019-05-19T09:47:19.716Z,9
2019-05-19T09:52:22.262Z,8
2019-05-19T09:57:24.712Z,9
2019-05-19T10:02:27.085Z,9
2019-05-19T10:07:29.672Z,9
2019-05-19T10:12:32.029Z,9
2019-05-19T10:17:34.544Z,9
2019-05-19T10:22:37.002Z,9
2019-05-19T10:27:39.393Z,9
2019-05-19T10:32:41.864Z,8
2019-05-19T10:37:44.340Z,8
2019-05-19T10:42:46.861Z,10
2019-05-19T10:47:49.226Z,8
2019-05-19T10:52:51.738Z,9
2019-05-19T10:57:54.160Z,8
2019-05-19T11:02:56.617Z,9
2019-05-19T11:07:59.081Z,8
2019-05-19T11:18:06.424Z,6
2019-05-19T11:23:06.593Z,6
2019-05-19T11:28:08.935Z,7
2019-05-19T11:33:11.376Z,7
2019-05-19T11:38:13.830Z,6
2019-05-19T11:43:16.292Z,6
2019-05-19T11:48:18.783Z,6
2019-05-19T11:53:21.260Z,6
2019-05-19T11:58:23.723Z,6
2019-05-19T12:03:26.170Z,6
2019-05-19T12:08:28.611Z,6
2019-05-19T12:13:31.976Z,7
2019-05-19T12:18:33.539Z,8
2019-05-19T12:23:35.999Z,7
2019-05-19T12:28:38.446Z,8
2019-05-19T12:33:51.358Z,8
2019-05-19T12:38:43.383Z,9
2019-05-19T12:43:45.891Z,10
2019-05-19T12:48:48.355Z,9
2019-05-19T12:53:50.813Z,9
2019-05-19T12:58:53.191Z,8
2019-05-19T13:03:55.653Z,9
2019-05-19T13:08:58.129Z,9
2019-05-19T13:14:00.614Z,10
2019-05-19T13:19:03.067Z,10
2019-05-19T13:24:05.495Z,9
2019-05-19T13:29:07.968Z,9
2019-05-19T13:34:11.631Z,9
2019-05-19T13:39:12.877Z,8
2019-05-19T13:44:15.366Z,8
2019-05-19T13:49:17.965Z,9
2019-05-19T13:54:20.258Z,9
2019-05-19T13:59:22.732Z,9
2019-05-19T14:04:25.204Z,10
2019-05-19T14:09:27.632Z,9
2019-05-19T14:14:30.093Z,8
2019-05-19T14:19:32.560Z,9
2019-05-19T14:24:35.000Z,8
2019-05-19T14:29:37.479Z,9
2019-05-19T14:34:39.965Z,8
2019-05-19T14:39:42.393Z,9
2019-05-19T14:44:44.944Z,7
2019-05-19T14:49:47.329Z,7
2019-05-19T14:54:49.754Z,8
2019-05-19T14:59:52.208Z,7
2019-05-19T15:04:54.667Z,8
2019-05-19T15:09:57.155Z,9
2019-05-19T15:14:59.603Z,9
2019-05-19T15:20:02.112Z,9
2019-05-19T15:25:04.512Z,8
2019-05-19T15:30:12.738Z,7
2019-05-19T15:35:09.445Z,7
2019-05-19T15:40:12.205Z,7
2019-05-19T15:45:14.362Z,9
2019-05-19T15:50:16.820Z,8
2019-05-19T15:55:19.363Z,7
2019-05-19T16:00:21.844Z,8
2019-05-19T16:05:24.178Z,7
2019-05-19T16:10:26.653Z,7
2019-05-19T16:15:29.102Z,8
2019-05-19T16:20:31.593Z,8
2019-05-19T16:25:34.034Z,9
2019-05-19T16:30:36.599Z,9
2019-05-19T16:35:39.049Z,9
2019-05-19T16:40:41.409Z,10
2019-05-19T16:45:43.862Z,9
2019-05-19T16:50:46.351Z,10
2019-05-19T16:55:48.795Z,8
2019-05-19T17:00:51.324Z,8
2019-05-19T17:05:53.691Z,7
2019-05-19T17:10:56.256Z,7
2019-05-19T17:15:58.624Z,8
2019-05-19T17:21:01.088Z,8
2019-05-19T17:26:03.509Z,8
2019-05-19T17:31:07.670Z,8
2019-05-19T17:36:08.439Z,8
2019-05-19T17:41:10.893Z,8
2019-05-19T17:46:13.407Z,7
2019-05-19T17:51:15.865Z,7
2019-05-19T17:56:18.271Z,8
2019-05-19T18:01:20.809Z,8
2019-05-19T18:06:23.189Z,7
2019-05-19T18:11:25.652Z,8
2019-05-19T18:16:28.163Z,9
2019-05-19T18:21:30.590Z,8
2019-05-19T18:26:33.014Z,8
2019-05-19T18:31:35.571Z,8
2019-05-19T18:36:37.958Z,9
2019-05-19T18:41:40.401Z,9
2019-05-19T18:46:42.852Z,9
2019-05-19T18:51:45.323Z,9
2019-05-19T18:56:50.605Z,9
2019-05-19T19:01:50.302Z,10
2019-05-19T19:06:52.740Z,12
2019-05-19T19:11:55.190Z,11
2019-05-19T19:16:57.619Z,9
2019-05-19T19:22:00.300Z,11
2019-05-19T19:27:02.532Z,12
2019-05-19T19:32:05.104Z,12
2019-05-19T19:37:07.430Z,13
2019-05-19T19:42:09.889Z,12
2019-05-19T19:47:12.372Z,11
2019-05-19T19:52:14.842Z,11
2019-05-19T20:02:19.730Z,12
2019-05-19T20:07:22.196Z,12
2019-05-19T20:12:24.672Z,10
2019-05-19T20:17:27.094Z,11
2019-05-19T20:22:29.596Z,12
2019-05-19T20:27:32.037Z,10
2019-05-19T20:32:34.475Z,12
2019-05-19T20:37:36.933Z,12
2019-05-19T20:42:39.413Z,12
2019-05-19T20:47:41.829Z,11
2019-05-19T20:52:44.298Z,11
2019-05-19T20:57:46.767Z,12
2019-05-19T21:02:49.228Z,11
2019-05-19T21:07:51.728Z,10
2019-05-19T21:12:57.221Z,10
2019-05-19T21:17:56.587Z,11
2019-05-19T21:22:59.055Z,11
2019-05-19T21:28:01.517Z,13
2019-05-19T21:33:03.949Z,12
2019-05-19T21:38:06.464Z,10
2019-05-19T21:43:08.884Z,12
2019-05-19T21:48:11.364Z,13
2019-05-19T21:53:13.810Z,12
2019-05-19T21:58:16.283Z,12
2019-05-19T22:03:18.749Z,13
2019-05-19T22:08:21.224Z,14
2019-05-19T22:13:23.628Z,14
2019-05-19T22:18:26.086Z,12
2019-05-19T22:23:29.235Z,12
2019-05-19T22:28:30.995Z,12
2019-05-19T22:33:33.459Z,12
2019-05-19T22:38:37.264Z,14
2019-05-19T22:43:38.384Z,12
2019-05-19T22:48:40.821Z,13
2019-05-19T22:53:43.300Z,14
2019-05-19T22:58:45.759Z,13
2019-05-19T23:03:48.179Z,13
2019-05-19T23:08:50.658Z,13
2019-05-19T23:13:53.189Z,13
2019-05-19T23:18:55.556Z,12
2019-05-19T23:23:58.073Z,13
2019-05-19T23:29:00.477Z,13
2019-05-19T23:34:02.963Z,13
2019-05-19T23:39:05.394Z,14
2019-05-19T23:44:08.110Z,13
2019-05-19T23:49:10.340Z,15
2019-05-19T23:54:12.803Z,15
2019-05-19T23:59:15.336Z,14
